McComb, MS

7:48 PM CDT on October 24, 2014 (GMT -0500)
McComb-Pike County-Lewis | Change Station
CLOSE
Current Station
Airport
Location: McComb,
Elevation: 410 ft
Nearby Weather Stations

Elev 410 ft 31.18 °N, 90.47 °W | Updated 55 minutes ago

Clear
Clear
63 °F
Feels Like 63 °F
N
5
Wind Variable Wind from NNW

Today
High -- | Low -- °F
--% Chance of Precip.
Yesterday
High -- | Low -- °F
Precip. -- in
7:11 AM 6:20 PM
New Moon, 1% visible
Pressure 30.08 in
Visibility 9.0 miles
Clouds Clear
Dew Point 48 °F
Humidity 58%
Rainfall 0.00 in
Snow Depth Not available.
UV 0 out of 12
Pollen 2.60 out of 12
Air Quality Not available.
Flu Activity Sporadic
METAR KMCB 242353Z AUTO 34004KT 9SM CLR 17/09 A3008 RMK AO2 SLP184 T01720089 10244 20172 51006

More Conditions Fewer Conditions

Pressure 30.08 in
Visibility 9.0 miles
Clouds Clear
Dew Point 48 °F
Humidity 58%
Rainfall 0.00 in
Snow Depth Not available.
UV 0 out of 12
Pollen 2.60 out of 12
Air Quality Not available.
Flu Activity Sporadic
METAR KMCB 242353Z AUTO 34004KT 9SM CLR 17/09 A3008 RMK AO2 SLP184 T01720089 10244 20172 51006

More Conditions Fewer Conditions

10-Day Weather Forecast

Almanac

Astronomy

Oct. 24, 2014 Rise Set
Actual Time 7:11 AM CDT 6:20 PM CDT
Civil Twilight 6:46 AM CDT 6:45 PM CDT
Nautical Twilight 6:18 AM CDT 7:13 PM CDT
Astronomical Twilight 5:49 AM CDT 7:41 PM CDT
Moon 7:48 AM CDT (10/24) 7:03 PM CDT (10/24)
Length of Visible Light 11h 58m
Length of Day
11h 09m
Tomorrow will be 1m 44s shorter.
New Moon, 1% of the Moon is Illuminated
Today
New Moon
Oct 30
First Quarter
Nov 6
Full
Nov 14
Last Quarter
Nov 22
New

Today's Extremes

State Highs State Lows

Community

WunderPhotos

Upload Photos

1,764,735 photos uploaded!

WunderBlogs® & News

Nearby

Snow Depth

Station Depth Elevation
No new snow has been reported.

Earthquake Activity

City Distance Mag. Time & Date
No recent earthquake activity has been reported nearby.
Minimum magnitude displayed is 2.5.

Coastal Water Temperatures

Place Temperature
No Stations Reporting

Nearby Weather Stations